Budapest Bridge — VRIZ5 — position and weather

sailwx.info

Track history (hours):
 
Tides and Currents Weather Stations Pressure Air Temp Water Temp Dewpoint Dewpoint Depression Visibility Wind Speed Wind Dir Waves Ship Positions

Budapest Bridge

Last reported at 2018-Feb-24 06:10 UTC. Time now 2018-Feb-24 07:49 UTC.
Position N 39°13' W 027°09'.

Length 268 m; draft 10.1 m.

Type: Ship (hazmat cat D). MMSI: 477434200.

Date/timePositionNaut miles runAvg speedWind from/ knotsBaromVisibWave heightAir tempDewpointWater temp
2018-Feb-24 06:10N 39°13' W 027°09'319.7
2018-Feb-24 06:01N 39°13' W 027°13'1019.8
2018-Feb-24 05:30N 39°15' W 027°26'1119.6
2018-Feb-24 04:58N 39°18' W 027°39'919.3
2018-Feb-24 04:30N 39°19' W 027°50'1019.1
2018-Feb-24 04:00N 39°20' W 028°03'1019.5
2018-Feb-24 03:31N 39°19' W 028°15'1019.2
2018-Feb-24 03:00N 39°18' W 028°28'1019.4
2018-Feb-24 02:30N 39°18' W 028°40'1019.1
2018-Feb-24 02:00N 39°17' W 028°52'1019.3
2018-Feb-24 01:30N 39°17' W 029°05'918.7
2018-Feb-24 01:00N 39°17' W 029°17'918.5
2018-Feb-24 00:30N 39°16' W 029°29'816.8
2018-Feb-24 00:00N 39°15' W 029°40'816.5
2018-Feb-23 23:30N 39°14' W 029°50'917.0
2018-Feb-23 23:00N 39°13' W 030°01'1019.2
2018-Feb-23 22:30N 39°11' W 030°13'1019.7
2018-Feb-23 22:00N 39°09' W 030°26'1019.5
2018-Feb-23 21:30N 39°08' W 030°38'1019.4
2018-Feb-23 21:00N 39°06' W 030°50'2019.5
2018-Feb-23 19:58N 39°06' W 031°16'919.8
2018-Feb-23 19:30N 39°06' W 031°28'1019.6
2018-Feb-23 19:00N 39°06' W 031°41'  
2018-Feb-18 11:31N 31°57' W 080°11'814.8
2018-Feb-18 11:00N 31°57' W 080°20'611.2
2018-Feb-18 10:30N 31°57' W 080°27'5 9.7
2018-Feb-18 10:00N 31°57' W 080°33'5 9.7
2018-Feb-18 09:30N 31°57' W 080°38'510.2
2018-Feb-18 08:59N 31°58' W 080°44'715.0
2018-Feb-18 08:30N 32°02' W 080°51'612.3
2018-Feb-18 08:00N 32°04' W 080°58'5 9.1
2018-Feb-18 07:30N 32°05' W 081°04'3 6.9
2018-Feb-18 07:00N 32°06' W 081°07'2 2.9
2018-Feb-18 06:28N 32°08' W 081°08'0 0.0
2018-Feb-18 05:52N 32°08' W 081°08'0 0.0
2018-Feb-18 05:28N 32°08' W 081°08'0 0.0
2018-Feb-18 04:58N 32°08' W 081°08'0 0.0
2018-Feb-18 04:22N 32°08' W 081°08'0 0.0
2018-Feb-18 03:58N 32°08' W 081°08'0 0.0
2018-Feb-18 03:28N 32°08' W 081°08'0 0.0
2018-Feb-18 02:58N 32°08' W 081°08'0 0.0
2018-Feb-18 02:27N 32°08' W 081°08'0 0.0
2018-Feb-18 01:58N 32°08' W 081°08'0 0.0
2018-Feb-18 01:27N 32°08' W 081°08'0 0.0
2018-Feb-18 00:58N 32°08' W 081°08'0 0.0
2018-Feb-18 00:28N 32°08' W 081°08'0 0.0
2018-Feb-17 23:58N 32°08' W 081°08'0 0.0
2018-Feb-17 23:28N 32°08' W 081°08'0 0.0
2018-Feb-17 22:57N 32°08' W 081°08'0 0.0
2018-Feb-17 22:28N 32°08' W 081°08'0 0.0
2018-Feb-17 21:58N 32°08' W 081°08'0 0.0
2018-Feb-17 21:27N 32°08' W 081°08'0 0.0
2018-Feb-17 20:46N 32°08' W 081°08'0 0.0
2018-Feb-17 20:28N 32°08' W 081°08'0 0.0
2018-Feb-17 19:57N 32°08' W 081°08'0 0.0
2018-Feb-17 19:22N 32°08' W 081°08'0 0.0
2018-Feb-17 18:58N 32°08' W 081°08'0 0.0
2018-Feb-17 18:28N 32°08' W 081°08'0 0.4
2018-Feb-17 18:01N 32°08' W 081°08'2 4.0
2018-Feb-17 17:30N 32°06' W 081°07'3 5.4
2018-Feb-17 17:00N 32°05' W 081°04'3 6.8
2018-Feb-17 16:30N 32°06' W 081°01'611.8
2018-Feb-17 16:00N 32°02' W 080°55'611.5
2018-Feb-17 15:30N 32°01' W 080°49'714.5
2018-Feb-17 15:00N 31°57' W 080°41'5 9.0
2018-Feb-17 14:30N 31°57' W 080°36'4 3.7
2018-Feb-17 13:29N 31°58' W 080°32'0 0.0
2018-Feb-17 12:59N 31°58' W 080°32'0 0.0
2018-Feb-17 12:29N 31°58' W 080°32'0 0.0
2018-Feb-17 11:53N 31°58' W 080°32'0 0.1
2018-Feb-17 11:29N 31°58' W 080°32'0 0.1
2018-Feb-17 10:59N 31°58' W 080°32'0 0.1
2018-Feb-17 10:29N 31°58' W 080°32'0 0.3
2018-Feb-17 09:59N 31°58' W 080°32'0 0.1
2018-Feb-17 09:17N 31°58' W 080°32'0 0.1
2018-Feb-17 08:59N 31°58' W 080°32'0 0.0
2018-Feb-17 08:29N 31°58' W 080°32'0 0.0
2018-Feb-17 07:59N 31°58' W 080°32'0 0.0
2018-Feb-17 07:29N 31°58' W 080°32'0 0.0
2018-Feb-17 06:41N 31°58' W 080°32'0 0.1
2018-Feb-17 06:29N 31°58' W 080°32'0 0.0
2018-Feb-17 05:53N 31°58' W 080°32'0 0.0
2018-Feb-17 05:29N 31°58' W 080°32'0 0.0
2018-Feb-17 04:59N 31°58' W 080°32'0 0.0
2018-Feb-17 04:29N 31°58' W 080°32'0 0.0
2018-Feb-17 03:59N 31°58' W 080°32'0 0.0
2018-Feb-17 03:17N 31°58' W 080°32'0 0.0
2018-Feb-17 02:59N 31°58' W 080°32'0 0.0
2018-Feb-17 02:29N 31°58' W 080°32'0 0.0
2018-Feb-17 01:53N 31°58' W 080°32'0 0.0
2018-Feb-17 01:29N 31°58' W 080°32'0 0.0
2018-Feb-16 20:41N 31°58' W 080°32'0 0.0
2018-Feb-16 20:23N 31°58' W 080°32'0 0.0
2018-Feb-16 19:59N 31°58' W 080°32'0 0.0
2018-Feb-16 19:29N 31°58' W 080°32'0 0.0
2018-Feb-16 18:59N 31°58' W 080°32'0 0.0
2018-Feb-16 18:29N 31°58' W 080°32'0 0.0
2018-Feb-16 17:59N 31°58' W 080°32'0 0.0
2018-Feb-16 17:29N 31°58' W 080°32'0 0.0
2018-Feb-16 16:59N 31°58' W 080°32'0 0.1
2018-Feb-16 16:23N 31°58' W 080°32'0 0.0
2018-Feb-16 15:59N 31°58' W 080°32'0 0.1
2018-Feb-16 15:29N 31°58' W 080°32'0 0.0
2018-Feb-16 14:59N 31°58' W 080°32'0 0.1
2018-Feb-16 14:29N 31°58' W 080°32'0 0.0
2018-Feb-16 13:59N 31°58' W 080°32'0 0.1
2018-Feb-16 13:11N 31°58' W 080°32'0 0.1
2018-Feb-16 12:59N 31°58' W 080°32'0 0.0
2018-Feb-16 12:23N 31°58' W 080°32'0 0.0
2018-Feb-16 11:59N 31°58' W 080°32'0 0.0
2018-Feb-16 11:23N 31°58' W 080°32'0 0.0
2018-Feb-16 10:53N 31°58' W 080°32'0 0.0
2018-Feb-16 07:05N 31°58' W 080°32'0 0.0
2018-Feb-16 06:35N 31°58' W 080°32'0 0.1
2018-Feb-16 06:29N 31°58' W 080°32'0 0.1
2018-Feb-16 05:59N 31°58' W 080°32'0 0.0
2018-Feb-16 05:29N 31°58' W 080°32'0 0.0
2018-Feb-16 04:53N 31°58' W 080°32'0 0.0
2018-Feb-16 04:29N 31°58' W 080°32'0 0.0
2018-Feb-16 03:59N 31°58' W 080°32'0 0.0
2018-Feb-16 03:29N 31°58' W 080°32'0 0.0
2018-Feb-16 02:53N 31°58' W 080°32'0 0.0
2018-Feb-16 02:29N 31°58' W 080°32'0 0.0
2018-Feb-16 01:59N 31°58' W 080°32'0 0.0
2018-Feb-16 01:29N 31°58' W 080°32'0 0.0
2018-Feb-16 00:59N 31°58' W 080°32'1 0.1
2018-Feb-15 18:03N 31°59' W 080°32'0 7.8
2018-Feb-15 18:01N 31°59' W 080°31'7 9.2
2018-Feb-15 17:17N 31°59' W 080°23'5 8.9
2018-Feb-15 16:43N 32°00' W 080°18'3 3.0
2018-Feb-15 15:44N 32°00' W 080°14'210.3
2018-Feb-15 15:30N 32°00' W 080°11'713.1
2018-Feb-15 15:00N 32°00' W 080°04'713.1
2018-Feb-15 14:27N 32°00' W 079°55'812.9
2018-Feb-15 13:51N 32°01' W 079°46'513.4
2018-Feb-15 13:31N 32°03' W 079°41'913.4
2018-Feb-15 12:52N 32°08' W 079°33'513.5
2018-Feb-15 12:29N 32°11' W 079°28'33416.3
2018-Feb-14 15:57N 36°49' W 075°43'4 9.6
2018-Feb-14 15:30N 36°50' W 075°48'5 9.7
2018-Feb-14 14:58N 36°53' W 075°53'5 9.7
2018-Feb-14 14:29N 36°56' W 075°58'510.7
2018-Feb-14 14:00N 36°58' W 076°04'1018.1
2018-Feb-14 13:29N 37°00' W 076°15'510.1
2018-Feb-14 13:00N 36°58' W 076°20'2 4.1
2018-Feb-14 12:28N 36°55' W 076°20'0 0.0
2018-Feb-14 11:58N 36°55' W 076°20'0 0.0
2018-Feb-14 11:28N 36°55' W 076°20'0 0.0
2018-Feb-14 10:58N 36°55' W 076°20'0 0.0
2018-Feb-14 10:28N 36°55' W 076°20'0 0.0
2018-Feb-14 09:58N 36°55' W 076°20'0 0.0
2018-Feb-14 09:28N 36°55' W 076°20'0 0.0
2018-Feb-14 08:58N 36°55' W 076°20'0 0.0
2018-Feb-14 08:28N 36°55' W 076°20'0 0.0
2018-Feb-14 07:58N 36°55' W 076°20'0 0.0
2018-Feb-14 07:28N 36°55' W 076°20'0 0.0
2018-Feb-14 06:58N 36°55' W 076°20'0 0.0
2018-Feb-14 06:28N 36°55' W 076°20'  
Track history (hours):
 
Tides and Currents Weather Stations Pressure Air Temp Water Temp Dewpoint Dewpoint Depression Visibility Wind Speed Wind Dir Waves Ship Positions

Budapest Bridge

Last reported at 2018-Feb-24 06:10 UTC. Time now 2018-Feb-24 07:49 UTC.
Position N 39°13' W 027°09'.

Length 268 m; draft 10.1 m.

Type: Ship (hazmat cat D). MMSI: 477434200.

Date/timePositionNaut miles runAvg speedWind from/ knotsBaromVisibWave heightAir tempDewpointWater temp
2018-Feb-24 06:10N 39°13' W 027°09'319.7
2018-Feb-24 06:01N 39°13' W 027°13'1019.8
2018-Feb-24 05:30N 39°15' W 027°26'1119.6
2018-Feb-24 04:58N 39°18' W 027°39'919.3
2018-Feb-24 04:30N 39°19' W 027°50'1019.1
2018-Feb-24 04:00N 39°20' W 028°03'1019.5
2018-Feb-24 03:31N 39°19' W 028°15'1019.2
2018-Feb-24 03:00N 39°18' W 028°28'1019.4
2018-Feb-24 02:30N 39°18' W 028°40'1019.1
2018-Feb-24 02:00N 39°17' W 028°52'1019.3
2018-Feb-24 01:30N 39°17' W 029°05'918.7
2018-Feb-24 01:00N 39°17' W 029°17'918.5
2018-Feb-24 00:30N 39°16' W 029°29'816.8
2018-Feb-24 00:00N 39°15' W 029°40'816.5
2018-Feb-23 23:30N 39°14' W 029°50'917.0
2018-Feb-23 23:00N 39°13' W 030°01'1019.2
2018-Feb-23 22:30N 39°11' W 030°13'1019.7
2018-Feb-23 22:00N 39°09' W 030°26'1019.5
2018-Feb-23 21:30N 39°08' W 030°38'1019.4
2018-Feb-23 21:00N 39°06' W 030°50'2019.5
2018-Feb-23 19:58N 39°06' W 031°16'919.8
2018-Feb-23 19:30N 39°06' W 031°28'1019.6
2018-Feb-23 19:00N 39°06' W 031°41'  
2018-Feb-18 11:31N 31°57' W 080°11'814.8
2018-Feb-18 11:00N 31°57' W 080°20'611.2
2018-Feb-18 10:30N 31°57' W 080°27'5 9.7
2018-Feb-18 10:00N 31°57' W 080°33'5 9.7
2018-Feb-18 09:30N 31°57' W 080°38'510.2
2018-Feb-18 08:59N 31°58' W 080°44'715.0
2018-Feb-18 08:30N 32°02' W 080°51'612.3
2018-Feb-18 08:00N 32°04' W 080°58'5 9.1
2018-Feb-18 07:30N 32°05' W 081°04'3 6.9
2018-Feb-18 07:00N 32°06' W 081°07'2 2.9
2018-Feb-18 06:28N 32°08' W 081°08'0 0.0
2018-Feb-18 05:52N 32°08' W 081°08'0 0.0
2018-Feb-18 05:28N 32°08' W 081°08'0 0.0
2018-Feb-18 04:58N 32°08' W 081°08'0 0.0
2018-Feb-18 04:22N 32°08' W 081°08'0 0.0
2018-Feb-18 03:58N 32°08' W 081°08'0 0.0
2018-Feb-18 03:28N 32°08' W 081°08'0 0.0
2018-Feb-18 02:58N 32°08' W 081°08'0 0.0
2018-Feb-18 02:27N 32°08' W 081°08'0 0.0
2018-Feb-18 01:58N 32°08' W 081°08'0 0.0
2018-Feb-18 01:27N 32°08' W 081°08'0 0.0
2018-Feb-18 00:58N 32°08' W 081°08'0 0.0
2018-Feb-18 00:28N 32°08' W 081°08'0 0.0
2018-Feb-17 23:58N 32°08' W 081°08'0 0.0
2018-Feb-17 23:28N 32°08' W 081°08'0 0.0
2018-Feb-17 22:57N 32°08' W 081°08'0 0.0
2018-Feb-17 22:28N 32°08' W 081°08'0 0.0
2018-Feb-17 21:58N 32°08' W 081°08'0 0.0
2018-Feb-17 21:27N 32°08' W 081°08'0 0.0
2018-Feb-17 20:46N 32°08' W 081°08'0 0.0
2018-Feb-17 20:28N 32°08' W 081°08'0 0.0
2018-Feb-17 19:57N 32°08' W 081°08'0 0.0
2018-Feb-17 19:22N 32°08' W 081°08'0 0.0
2018-Feb-17 18:58N 32°08' W 081°08'0 0.0
2018-Feb-17 18:28N 32°08' W 081°08'0 0.4
2018-Feb-17 18:01N 32°08' W 081°08'2 4.0
2018-Feb-17 17:30N 32°06' W 081°07'3 5.4
2018-Feb-17 17:00N 32°05' W 081°04'3 6.8
2018-Feb-17 16:30N 32°06' W 081°01'611.8
2018-Feb-17 16:00N 32°02' W 080°55'611.5
2018-Feb-17 15:30N 32°01' W 080°49'714.5
2018-Feb-17 15:00N 31°57' W 080°41'5 9.0
2018-Feb-17 14:30N 31°57' W 080°36'4 3.7
2018-Feb-17 13:29N 31°58' W 080°32'0 0.0
2018-Feb-17 12:59N 31°58' W 080°32'0 0.0
2018-Feb-17 12:29N 31°58' W 080°32'0 0.0
2018-Feb-17 11:53N 31°58' W 080°32'0 0.1
2018-Feb-17 11:29N 31°58' W 080°32'0 0.1
2018-Feb-17 10:59N 31°58' W 080°32'0 0.1
2018-Feb-17 10:29N 31°58' W 080°32'0 0.3
2018-Feb-17 09:59N 31°58' W 080°32'0 0.1
2018-Feb-17 09:17N 31°58' W 080°32'0 0.1
2018-Feb-17 08:59N 31°58' W 080°32'0 0.0
2018-Feb-17 08:29N 31°58' W 080°32'0 0.0
2018-Feb-17 07:59N 31°58' W 080°32'0 0.0
2018-Feb-17 07:29N 31°58' W 080°32'0 0.0
2018-Feb-17 06:41N 31°58' W 080°32'0 0.1
2018-Feb-17 06:29N 31°58' W 080°32'0 0.0
2018-Feb-17 05:53N 31°58' W 080°32'0 0.0
2018-Feb-17 05:29N 31°58' W 080°32'0 0.0
2018-Feb-17 04:59N 31°58' W 080°32'0 0.0
2018-Feb-17 04:29N 31°58' W 080°32'0 0.0
2018-Feb-17 03:59N 31°58' W 080°32'0 0.0
2018-Feb-17 03:17N 31°58' W 080°32'0 0.0
2018-Feb-17 02:59N 31°58' W 080°32'0 0.0
2018-Feb-17 02:29N 31°58' W 080°32'0 0.0
2018-Feb-17 01:53N 31°58' W 080°32'0 0.0
2018-Feb-17 01:29N 31°58' W 080°32'0 0.0
2018-Feb-16 20:41N 31°58' W 080°32'0 0.0
2018-Feb-16 20:23N 31°58' W 080°32'0 0.0
2018-Feb-16 19:59N 31°58' W 080°32'0 0.0
2018-Feb-16 19:29N 31°58' W 080°32'0 0.0
2018-Feb-16 18:59N 31°58' W 080°32'0 0.0
2018-Feb-16 18:29N 31°58' W 080°32'0 0.0
2018-Feb-16 17:59N 31°58' W 080°32'0 0.0
2018-Feb-16 17:29N 31°58' W 080°32'0 0.0
2018-Feb-16 16:59N 31°58' W 080°32'0 0.1
2018-Feb-16 16:23N 31°58' W 080°32'0 0.0
2018-Feb-16 15:59N 31°58' W 080°32'0 0.1
2018-Feb-16 15:29N 31°58' W 080°32'0 0.0
2018-Feb-16 14:59N 31°58' W 080°32'0 0.1
2018-Feb-16 14:29N 31°58' W 080°32'0 0.0
2018-Feb-16 13:59N 31°58' W 080°32'0 0.1
2018-Feb-16 13:11N 31°58' W 080°32'0 0.1
2018-Feb-16 12:59N 31°58' W 080°32'0 0.0
2018-Feb-16 12:23N 31°58' W 080°32'0 0.0
2018-Feb-16 11:59N 31°58' W 080°32'0 0.0
2018-Feb-16 11:23N 31°58' W 080°32'0 0.0
2018-Feb-16 10:53N 31°58' W 080°32'0 0.0
2018-Feb-16 07:05N 31°58' W 080°32'0 0.0
2018-Feb-16 06:35N 31°58' W 080°32'0 0.1
2018-Feb-16 06:29N 31°58' W 080°32'0 0.1
2018-Feb-16 05:59N 31°58' W 080°32'0 0.0
2018-Feb-16 05:29N 31°58' W 080°32'0 0.0
2018-Feb-16 04:53N 31°58' W 080°32'0 0.0
2018-Feb-16 04:29N 31°58' W 080°32'0 0.0
2018-Feb-16 03:59N 31°58' W 080°32'0 0.0
2018-Feb-16 03:29N 31°58' W 080°32'0 0.0
2018-Feb-16 02:53N 31°58' W 080°32'0 0.0
2018-Feb-16 02:29N 31°58' W 080°32'0 0.0
2018-Feb-16 01:59N 31°58' W 080°32'0 0.0
2018-Feb-16 01:29N 31°58' W 080°32'0 0.0
2018-Feb-16 00:59N 31°58' W 080°32'1 0.1
2018-Feb-15 18:03N 31°59' W 080°32'0 7.8
2018-Feb-15 18:01N 31°59' W 080°31'7 9.2
2018-Feb-15 17:17N 31°59' W 080°23'5 8.9
2018-Feb-15 16:43N 32°00' W 080°18'3 3.0
2018-Feb-15 15:44N 32°00' W 080°14'210.3
2018-Feb-15 15:30N 32°00' W 080°11'713.1
2018-Feb-15 15:00N 32°00' W 080°04'713.1
2018-Feb-15 14:27N 32°00' W 079°55'812.9
2018-Feb-15 13:51N 32°01' W 079°46'513.4
2018-Feb-15 13:31N 32°03' W 079°41'913.4
2018-Feb-15 12:52N 32°08' W 079°33'513.5
2018-Feb-15 12:29N 32°11' W 079°28'33416.3
2018-Feb-14 15:57N 36°49' W 075°43'4 9.6
2018-Feb-14 15:30N 36°50' W 075°48'5 9.7
2018-Feb-14 14:58N 36°53' W 075°53'5 9.7
2018-Feb-14 14:29N 36°56' W 075°58'510.7
2018-Feb-14 14:00N 36°58' W 076°04'1018.1
2018-Feb-14 13:29N 37°00' W 076°15'510.1
2018-Feb-14 13:00N 36°58' W 076°20'2 4.1
2018-Feb-14 12:28N 36°55' W 076°20'0 0.0
2018-Feb-14 11:58N 36°55' W 076°20'0 0.0
2018-Feb-14 11:28N 36°55' W 076°20'0 0.0
2018-Feb-14 10:58N 36°55' W 076°20'0 0.0
2018-Feb-14 10:28N 36°55' W 076°20'0 0.0
2018-Feb-14 09:58N 36°55' W 076°20'0 0.0
2018-Feb-14 09:28N 36°55' W 076°20'0 0.0
2018-Feb-14 08:58N 36°55' W 076°20'0 0.0
2018-Feb-14 08:28N 36°55' W 076°20'0 0.0
2018-Feb-14 07:58N 36°55' W 076°20'0 0.0
2018-Feb-14 07:28N 36°55' W 076°20'0 0.0
2018-Feb-14 06:58N 36°55' W 076°20'0 0.0
2018-Feb-14 06:28N 36°55' W 076°20'  

Dump ship's entire track history